createdAt,value
2023-02-23T00:01:54.109Z,42.40
2023-02-23T00:04:24.647Z,42.70
2023-02-23T00:06:53.710Z,43.87
2023-02-23T00:09:24.411Z,44.93
2023-02-23T00:11:54.560Z,40.30
2023-02-23T00:14:27.269Z,42.73
2023-02-23T00:16:55.409Z,43.23
2023-02-23T00:19:25.680Z,43.27
2023-02-23T00:21:54.789Z,42.27
2023-02-23T00:24:23.253Z,43.70
2023-02-23T00:26:51.593Z,44.57
2023-02-23T00:29:22.428Z,42.33
2023-02-23T00:31:52.796Z,43.47
2023-02-23T00:34:23.525Z,43.87
2023-02-23T00:36:55.319Z,45.47
2023-02-23T00:39:26.828Z,47.80
2023-02-23T00:41:56.530Z,46.57
2023-02-23T00:44:25.674Z,48.30
2023-02-23T00:46:54.297Z,48.47
2023-02-23T00:49:23.668Z,48.63
2023-02-23T00:51:53.302Z,46.70
2023-02-23T00:54:23.086Z,48.80
2023-02-23T00:56:51.400Z,47.67
2023-02-23T00:59:20.116Z,47.17
2023-02-23T01:01:48.298Z,51.13
2023-02-23T01:04:16.908Z,49.80
2023-02-23T01:06:46.282Z,47.37
2023-02-23T01:09:27.137Z,48.10
2023-02-23T01:11:57.506Z,47.53
2023-02-23T01:14:26.256Z,46.80
2023-02-23T01:16:54.670Z,49.17
2023-02-23T01:19:23.082Z,47.93
2023-02-23T01:21:51.199Z,46.93
2023-02-23T01:24:20.612Z,47.83
2023-02-23T01:26:48.756Z,46.77
2023-02-23T01:29:18.806Z,46.07
2023-02-23T01:31:48.785Z,46.27
2023-02-23T01:34:21.645Z,46.50
2023-02-23T01:36:49.808Z,47.70
2023-02-23T01:39:21.268Z,44.33
2023-02-23T01:41:51.724Z,48.10
2023-02-23T01:44:58.428Z,46.37
2023-02-23T01:47:27.327Z,46.40
2023-02-23T01:49:55.543Z,45.70
2023-02-23T01:52:23.654Z,47.77
2023-02-23T01:54:55.752Z,47.37
2023-02-23T01:57:26.924Z,48.50
2023-02-23T01:59:55.681Z,46.70
2023-02-23T02:02:32.939Z,49.83
2023-02-23T02:05:02.010Z,48.90
2023-02-23T02:07:35.170Z,48.10
2023-02-23T02:10:22.918Z,48.10
2023-02-23T02:12:56.011Z,48.70
2023-02-23T02:15:29.582Z,47.20
2023-02-23T02:18:12.440Z,48.83
2023-02-23T02:21:13.333Z,48.83
2023-02-23T02:24:30.351Z,46.40
2023-02-23T02:27:17.739Z,48.90
2023-02-23T02:30:18.420Z,49.97
2023-02-23T02:33:11.871Z,49.27
2023-02-23T02:36:18.816Z,49.60
2023-02-23T02:38:56.322Z,46.33
2023-02-23T02:41:36.939Z,48.40
2023-02-23T02:44:16.246Z,48.50
2023-02-23T02:46:48.997Z,48.07
2023-02-23T02:49:24.148Z,46.60
2023-02-23T02:52:00.051Z,45.60
2023-02-23T02:54:35.082Z,44.37
2023-02-23T02:57:05.497Z,47.17
2023-02-23T03:00:02.019Z,46.40
2023-02-23T03:02:50.049Z,34.73
2023-02-23T03:05:38.342Z,47.93
2023-02-23T03:08:32.948Z,48.10
2023-02-23T03:11:23.858Z,47.80
2023-02-23T03:14:30.777Z,45.93
2023-02-23T03:17:24.576Z,46.60
2023-02-23T03:20:16.429Z,46.40
2023-02-23T03:23:11.974Z,47.20
2023-02-23T03:26:10.168Z,46.70
2023-02-23T03:29:08.328Z,47.20
2023-02-23T03:32:01.688Z,46.43
2023-02-23T03:34:52.314Z,45.07
2023-02-23T03:37:43.954Z,45.37
2023-02-23T03:40:35.052Z,46.67
2023-02-23T03:43:24.632Z,45.80
2023-02-23T03:46:14.057Z,44.77
2023-02-23T03:49:01.674Z,46.80
2023-02-23T03:51:50.696Z,47.30
2023-02-23T03:54:40.211Z,46.07
2023-02-23T03:57:28.585Z,49.00
2023-02-23T04:00:17.405Z,49.10
2023-02-23T04:03:08.583Z,47.33
2023-02-23T04:05:57.104Z,47.87
2023-02-23T04:08:47.597Z,48.30
2023-02-23T04:11:42.000Z,45.47
2023-02-23T04:14:16.093Z,46.30
2023-02-23T04:16:43.954Z,47.67
2023-02-23T04:19:13.993Z,47.73
2023-02-23T04:21:42.109Z,48.10
2023-02-23T04:24:11.340Z,49.27
2023-02-23T04:26:39.372Z,49.33
2023-02-23T04:29:07.596Z,50.63
2023-02-23T04:31:35.742Z,47.50
2023-02-23T04:34:04.702Z,48.70
2023-02-23T04:36:34.173Z,49.17
2023-02-23T04:39:02.286Z,49.13
2023-02-23T04:41:30.320Z,46.87
2023-02-23T04:43:58.596Z,48.70
2023-02-23T04:46:26.883Z,49.07
2023-02-23T04:48:54.887Z,50.03
2023-02-23T04:51:22.956Z,41.40
2023-02-23T04:53:52.604Z,50.57
2023-02-23T04:56:20.682Z,51.10
2023-02-23T04:58:48.785Z,51.10
2023-02-23T05:01:17.540Z,52.43
2023-02-23T05:03:46.076Z,54.17
2023-02-23T05:06:14.595Z,51.97
2023-02-23T05:08:42.650Z,52.00
2023-02-23T05:11:12.556Z,51.53
2023-02-23T05:13:40.645Z,52.40
2023-02-23T05:16:09.428Z,52.77
2023-02-23T05:18:37.466Z,54.90
2023-02-23T05:21:07.085Z,52.60
2023-02-23T05:23:36.224Z,51.57
2023-02-23T05:26:06.941Z,55.07
2023-02-23T05:28:37.519Z,53.13
2023-02-23T05:31:06.026Z,52.83
2023-02-23T05:33:35.176Z,53.90
2023-02-23T05:36:06.695Z,52.03
2023-02-23T05:38:34.756Z,51.27
2023-02-23T05:41:06.308Z,51.97
2023-02-23T05:43:35.786Z,54.07
2023-02-23T05:46:07.599Z,52.27
2023-02-23T05:48:35.815Z,53.43
2023-02-23T05:51:04.397Z,52.20
2023-02-23T05:53:32.681Z,51.77
2023-02-23T05:56:02.368Z,52.10
2023-02-23T05:58:31.010Z,54.30
2023-02-23T06:01:00.913Z,54.50
2023-02-23T06:03:29.318Z,54.80
2023-02-23T06:05:59.114Z,55.87
2023-02-23T06:08:27.548Z,55.67
2023-02-23T06:10:55.615Z,55.33
2023-02-23T06:13:23.761Z,56.00
2023-02-23T06:15:51.889Z,53.40
2023-02-23T06:18:22.218Z,57.87
2023-02-23T06:20:50.589Z,58.10
2023-02-23T06:23:19.213Z,57.90
2023-02-23T06:25:48.574Z,55.67
2023-02-23T06:28:16.741Z,56.40
2023-02-23T06:30:46.749Z,56.43
2023-02-23T06:33:14.964Z,57.70
2023-02-23T06:35:44.525Z,58.77
2023-02-23T06:38:12.614Z,58.30
2023-02-23T06:40:41.524Z,57.33
2023-02-23T06:43:09.602Z,61.77
2023-02-23T06:45:37.712Z,57.70
2023-02-23T06:48:06.369Z,57.03
2023-02-23T06:50:34.646Z,60.40
2023-02-23T06:53:05.009Z,64.80
2023-02-23T06:55:33.284Z,57.70
2023-02-23T06:58:01.443Z,63.33
2023-02-23T07:00:30.657Z,58.53
2023-02-23T07:02:59.814Z,62.97
2023-02-23T07:05:28.344Z,60.57
2023-02-23T07:07:56.430Z,61.27
2023-02-23T07:10:25.904Z,60.70
2023-02-23T07:12:55.369Z,61.23
2023-02-23T07:15:23.569Z,60.50
2023-02-23T07:17:52.842Z,59.97
2023-02-23T07:20:21.148Z,57.37
2023-02-23T07:22:49.212Z,60.17
2023-02-23T07:25:17.746Z,60.87
2023-02-23T07:27:47.551Z,58.97
2023-02-23T07:30:18.165Z,62.17
2023-02-23T07:32:46.316Z,61.80
2023-02-23T07:35:14.486Z,63.10
2023-02-23T07:37:42.553Z,64.17
2023-02-23T07:40:11.861Z,64.80
2023-02-23T07:42:40.181Z,64.30
2023-02-23T07:45:11.179Z,66.80
2023-02-23T07:47:39.543Z,67.97
2023-02-23T07:50:09.774Z,73.07
2023-02-23T07:52:38.802Z,75.77
2023-02-23T07:55:08.104Z,69.20
2023-02-23T07:57:36.432Z,70.90
2023-02-23T08:00:05.632Z,73.90
2023-02-23T08:02:42.203Z,72.70
2023-02-23T08:05:10.793Z,74.03
2023-02-23T08:07:39.191Z,70.47
2023-02-23T08:10:08.095Z,77.27
2023-02-23T08:12:36.949Z,77.03
2023-02-23T08:15:08.373Z,78.10
2023-02-23T08:17:36.764Z,77.40
2023-02-23T08:20:07.963Z,77.47
2023-02-23T08:22:48.403Z,73.70
2023-02-23T08:25:18.459Z,75.80
2023-02-23T08:27:46.826Z,75.23
2023-02-23T08:30:15.631Z,72.03
2023-02-23T08:32:43.756Z,70.37
2023-02-23T08:35:13.730Z,72.27
2023-02-23T08:37:42.461Z,73.10
2023-02-23T08:40:12.610Z,72.47
2023-02-23T08:42:40.718Z,72.23
2023-02-23T08:45:09.901Z,72.57
2023-02-23T08:47:37.936Z,67.17
2023-02-23T08:50:06.877Z,71.40
2023-02-23T08:52:36.400Z,66.57
2023-02-23T08:55:04.601Z,70.17
2023-02-23T08:57:34.190Z,64.77
2023-02-23T09:00:02.821Z,69.87
2023-02-23T09:02:30.935Z,68.57
2023-02-23T09:04:59.129Z,64.43
2023-02-23T09:07:27.497Z,66.20
2023-02-23T09:09:58.270Z,64.87
2023-02-23T09:12:26.864Z,65.40
2023-02-23T09:14:54.917Z,67.40
2023-02-23T09:17:23.971Z,65.53
2023-02-23T09:19:52.542Z,67.80
2023-02-23T09:22:20.651Z,65.70
2023-02-23T09:24:48.810Z,68.50
2023-02-23T09:27:18.347Z,64.57
2023-02-23T09:29:46.593Z,60.67
2023-02-23T09:32:14.745Z,67.17
2023-02-23T09:34:42.946Z,64.60
2023-02-23T09:37:10.957Z,67.30
2023-02-23T09:39:39.345Z,63.23
2023-02-23T09:42:33.803Z,66.40
2023-02-23T09:45:20.583Z,63.80
2023-02-23T09:48:02.159Z,66.53
2023-02-23T09:50:32.509Z,65.93
2023-02-23T09:53:04.211Z,60.47
2023-02-23T09:55:33.741Z,63.10
2023-02-23T09:58:08.922Z,61.90
2023-02-23T10:00:42.993Z,61.10
2023-02-23T10:03:22.830Z,56.83
2023-02-23T10:05:56.696Z,56.57
2023-02-23T10:08:41.497Z,56.47
2023-02-23T10:11:22.232Z,53.30
2023-02-23T10:14:04.650Z,55.73
2023-02-23T10:16:50.757Z,52.60
2023-02-23T10:19:27.348Z,51.30
2023-02-23T10:21:59.121Z,50.83
2023-02-23T10:24:31.021Z,52.03
2023-02-23T10:27:02.247Z,51.80
2023-02-23T10:29:35.980Z,49.00
2023-02-23T10:32:08.923Z,50.10
2023-02-23T10:34:37.783Z,52.70
2023-02-23T10:37:07.784Z,49.30
2023-02-23T10:39:35.930Z,50.17
2023-02-23T10:42:07.678Z,49.33
2023-02-23T10:44:37.160Z,49.00
2023-02-23T10:47:12.503Z,46.83
2023-02-23T10:49:44.226Z,46.73
2023-02-23T10:52:15.377Z,49.80
2023-02-23T10:54:48.207Z,49.20
2023-02-23T10:57:26.613Z,47.97
2023-02-23T11:00:27.611Z,45.60
2023-02-23T11:02:59.242Z,48.30
2023-02-23T11:05:32.858Z,48.77
2023-02-23T11:08:26.156Z,51.13
2023-02-23T11:11:19.144Z,47.17
2023-02-23T11:13:49.465Z,46.27
2023-02-23T11:16:21.487Z,48.90
2023-02-23T11:18:55.687Z,52.30
2023-02-23T11:21:26.795Z,47.60
2023-02-23T11:23:58.152Z,50.07
2023-02-23T11:26:31.777Z,49.17
2023-02-23T11:29:05.524Z,50.63
2023-02-23T11:31:36.954Z,50.00
2023-02-23T11:34:06.950Z,51.43
2023-02-23T11:36:36.623Z,49.10
2023-02-23T11:39:19.351Z,49.80
2023-02-23T11:41:47.652Z,46.87
2023-02-23T11:44:23.858Z,48.83
2023-02-23T11:46:53.860Z,49.43
2023-02-23T11:49:28.192Z,48.87
2023-02-23T11:51:56.430Z,52.97
2023-02-23T11:54:29.627Z,48.90
2023-02-23T11:57:02.269Z,50.00
2023-02-23T11:59:33.856Z,50.67
2023-02-23T12:02:20.773Z,53.07
2023-02-23T12:04:49.027Z,54.50
2023-02-23T12:07:42.527Z,58.03
2023-02-23T12:10:22.595Z,56.40
2023-02-23T12:12:57.168Z,57.60
2023-02-23T12:15:37.190Z,60.87
2023-02-23T12:18:15.396Z,56.10
2023-02-23T12:20:48.504Z,61.30
2023-02-23T12:23:19.900Z,62.50
2023-02-23T12:25:52.340Z,64.30
2023-02-23T12:28:28.014Z,61.63
2023-02-23T12:31:01.232Z,60.50
2023-02-23T12:33:36.515Z,60.87
2023-02-23T12:36:13.970Z,63.63
2023-02-23T12:38:50.272Z,60.37
2023-02-23T12:41:27.019Z,62.60
2023-02-23T12:44:00.765Z,59.00
2023-02-23T12:46:32.476Z,62.00
2023-02-23T12:49:17.009Z,62.60
2023-02-23T12:51:52.435Z,67.03
2023-02-23T12:54:20.877Z,64.73
2023-02-23T12:56:59.721Z,63.80
2023-02-23T12:59:47.030Z,61.63
2023-02-23T13:02:22.830Z,63.27
2023-02-23T13:05:22.562Z,60.37
2023-02-23T13:08:12.737Z,60.37
2023-02-23T13:10:49.879Z,57.50
2023-02-23T13:13:31.181Z,56.97
2023-02-23T13:16:07.974Z,55.67
2023-02-23T13:18:39.813Z,57.20
2023-02-23T13:21:20.103Z,54.23
2023-02-23T13:23:56.960Z,52.93
2023-02-23T13:26:37.127Z,50.47
2023-02-23T13:29:15.922Z,47.50
2023-02-23T13:31:46.407Z,50.47
2023-02-23T13:34:24.868Z,47.67
2023-02-23T13:36:55.733Z,46.97
2023-02-23T13:39:50.031Z,46.30
2023-02-23T13:42:31.555Z,49.40
2023-02-23T13:45:22.611Z,46.33
2023-02-23T13:47:57.711Z,45.97
2023-02-23T13:50:32.679Z,49.47
2023-02-23T13:53:06.858Z,37.00
2023-02-23T13:55:50.365Z,47.50
2023-02-23T13:58:23.716Z,47.97
2023-02-23T14:01:06.264Z,48.57
2023-02-23T14:03:42.368Z,49.27
2023-02-23T14:06:15.177Z,48.70
2023-02-23T14:08:47.356Z,49.80
2023-02-23T14:11:39.902Z,47.87
2023-02-23T14:14:08.059Z,49.30
2023-02-23T14:16:37.126Z,47.93
2023-02-23T14:19:32.788Z,46.97
2023-02-23T14:22:04.113Z,45.57
2023-02-23T14:24:33.616Z,47.40
2023-02-23T14:27:41.588Z,44.93
2023-02-23T14:30:25.511Z,43.97
2023-02-23T14:32:54.733Z,42.00
2023-02-23T14:35:44.880Z,40.67
2023-02-23T14:38:24.939Z,43.87
2023-02-23T14:40:55.632Z,41.30
2023-02-23T14:43:43.689Z,39.80
2023-02-23T14:46:20.158Z,41.43
2023-02-23T14:49:00.040Z,39.40
2023-02-23T14:51:42.346Z,41.40
2023-02-23T14:54:23.585Z,40.70
2023-02-23T14:56:56.728Z,40.30
2023-02-23T14:59:27.334Z,37.37
2023-02-23T15:01:57.008Z,37.20
2023-02-23T15:04:29.957Z,36.30
2023-02-23T15:07:01.659Z,36.30
2023-02-23T15:09:34.976Z,37.40
2023-02-23T15:12:13.666Z,38.30
2023-02-23T15:14:42.583Z,36.70
2023-02-23T15:17:19.634Z,37.13
2023-02-23T15:19:50.802Z,36.00
2023-02-23T15:22:25.902Z,37.17
2023-02-23T15:24:56.919Z,36.83
2023-02-23T15:27:31.837Z,37.53
2023-02-23T15:29:59.883Z,36.10
2023-02-23T15:32:28.132Z,36.40
2023-02-23T15:34:56.663Z,36.03
2023-02-23T15:37:32.311Z,34.93
2023-02-23T15:40:04.225Z,36.97
2023-02-23T15:42:38.960Z,35.20
2023-02-23T15:45:17.881Z,34.03
2023-02-23T15:47:46.063Z,30.00
2023-02-23T15:50:35.925Z,18.17
2023-02-23T15:53:13.265Z,10.73
2023-02-23T15:55:44.181Z,10.30
2023-02-23T15:58:21.880Z,7.73
2023-02-23T16:00:55.781Z,7.37
2023-02-23T16:03:25.783Z,8.40
2023-02-23T16:06:02.092Z,11.67
2023-02-23T16:08:31.040Z,9.67
2023-02-23T16:11:07.480Z,10.70
2023-02-23T16:13:37.083Z,9.93
2023-02-23T16:16:09.998Z,11.70
2023-02-23T16:18:42.072Z,11.13
2023-02-23T16:21:17.864Z,10.70
2023-02-23T16:23:49.190Z,9.73
2023-02-23T16:26:24.104Z,10.60
2023-02-23T16:28:58.126Z,10.37
2023-02-23T16:31:43.400Z,16.03
2023-02-23T16:34:25.528Z,8.63
2023-02-23T16:36:59.803Z,8.20
2023-02-23T16:39:30.515Z,8.27
2023-02-23T16:41:59.696Z,8.70
2023-02-23T16:44:42.971Z,10.00
2023-02-23T16:47:32.964Z,9.87
2023-02-23T16:50:13.664Z,9.57
2023-02-23T16:52:51.702Z,9.60
2023-02-23T16:55:25.673Z,11.33
2023-02-23T16:57:57.155Z,9.33
2023-02-23T17:00:28.851Z,8.73
2023-02-23T17:02:58.644Z,10.40
2023-02-23T17:05:27.370Z,10.70
2023-02-23T17:07:58.267Z,11.17
2023-02-23T17:10:30.815Z,11.07
2023-02-23T17:13:02.434Z,10.00
2023-02-23T17:15:35.142Z,8.20
2023-02-23T17:18:03.977Z,8.27
2023-02-23T17:20:32.752Z,8.43
2023-02-23T17:23:02.864Z,10.37
2023-02-23T17:25:31.333Z,8.90
2023-02-23T17:28:00.749Z,8.20
2023-02-23T17:30:31.118Z,7.67
2023-02-23T17:33:01.975Z,10.03
2023-02-23T17:35:32.575Z,6.73
2023-02-23T17:38:01.989Z,9.03
2023-02-23T17:40:31.042Z,8.30
2023-02-23T17:43:01.084Z,7.47
2023-02-23T17:45:31.553Z,8.37
2023-02-23T17:48:00.275Z,8.70
2023-02-23T17:50:28.688Z,7.87
2023-02-23T17:52:57.826Z,7.40
2023-02-23T17:55:26.176Z,7.43
2023-02-23T17:57:54.284Z,7.93
2023-02-23T18:00:22.685Z,7.43
2023-02-23T18:02:52.177Z,7.83
2023-02-23T18:05:20.634Z,8.00
2023-02-23T18:07:49.018Z,7.07
2023-02-23T18:10:17.932Z,8.33
2023-02-23T18:12:46.372Z,8.20
2023-02-23T18:15:14.487Z,8.03
2023-02-23T18:17:42.600Z,9.00
2023-02-23T18:20:17.122Z,8.63
2023-02-23T18:22:45.563Z,9.23
2023-02-23T18:25:21.953Z,8.53
2023-02-23T18:27:54.443Z,9.60
2023-02-23T18:30:24.572Z,15.50
2023-02-23T18:32:56.116Z,13.10
2023-02-23T18:35:25.801Z,13.77
2023-02-23T18:37:54.031Z,9.60
2023-02-23T18:40:23.822Z,11.27
2023-02-23T18:42:52.227Z,8.80
2023-02-23T18:45:20.669Z,8.30
2023-02-23T18:47:48.805Z,8.33
2023-02-23T18:50:19.198Z,9.97
2023-02-23T18:52:51.395Z,8.60
2023-02-23T18:55:22.103Z,9.50
2023-02-23T18:57:50.787Z,7.87
2023-02-23T19:00:20.555Z,9.23
2023-02-23T19:02:49.261Z,7.93
2023-02-23T19:05:20.899Z,7.90
2023-02-23T19:07:51.502Z,9.13
2023-02-23T19:10:19.929Z,7.63
2023-02-23T19:12:48.066Z,8.30
2023-02-23T19:15:17.019Z,7.63
2023-02-23T19:17:46.509Z,6.53
2023-02-23T19:20:15.879Z,7.63
2023-02-23T19:22:45.442Z,8.97
2023-02-23T19:25:15.257Z,9.50
2023-02-23T19:27:43.996Z,8.83
2023-02-23T19:30:14.525Z,8.30
2023-02-23T19:32:43.905Z,8.60
2023-02-23T19:35:15.168Z,7.50
2023-02-23T19:37:51.029Z,7.70
2023-02-23T19:40:23.956Z,7.30
2023-02-23T19:42:54.060Z,11.20
2023-02-23T19:45:24.958Z,12.23
2023-02-23T19:47:53.947Z,11.47
2023-02-23T19:50:22.657Z,8.37
2023-02-23T19:52:51.145Z,9.30
2023-02-23T19:55:21.193Z,7.93
2023-02-23T19:57:49.341Z,5.10
2023-02-23T20:00:18.235Z,5.87
2023-02-23T20:02:47.599Z,7.47
2023-02-23T20:06:05.857Z,9.93
2023-02-23T20:09:16.278Z,8.83
2023-02-23T20:11:45.899Z,8.30
2023-02-23T20:14:13.992Z,8.87
2023-02-23T20:16:42.168Z,8.90
2023-02-23T20:19:11.506Z,7.63
2023-02-23T20:21:39.705Z,7.37
2023-02-23T20:24:08.263Z,8.90
2023-02-23T20:26:37.979Z,7.73
2023-02-23T20:29:11.505Z,10.30
2023-02-23T20:31:41.966Z,8.33
2023-02-23T20:34:12.089Z,7.20
2023-02-23T20:36:40.409Z,9.07
2023-02-23T20:39:10.320Z,7.00
2023-02-23T20:41:44.003Z,6.67
2023-02-23T20:44:14.041Z,7.17
2023-02-23T20:46:43.740Z,7.17
2023-02-23T20:49:12.687Z,5.87
2023-02-23T20:51:42.311Z,5.93
2023-02-23T20:54:11.239Z,6.43
2023-02-23T20:56:40.158Z,6.53
2023-02-23T20:59:11.073Z,8.03
2023-02-23T21:01:42.058Z,8.13
2023-02-23T21:04:12.710Z,6.10
2023-02-23T21:06:41.080Z,6.20
2023-02-23T21:09:12.672Z,6.17
2023-02-23T21:11:40.878Z,6.40
2023-02-23T21:14:08.940Z,5.60
2023-02-23T21:16:40.816Z,5.73
2023-02-23T21:19:13.795Z,7.00
2023-02-23T21:21:43.083Z,5.37
2023-02-23T21:24:12.066Z,5.90
2023-02-23T21:26:43.083Z,6.07
2023-02-23T21:29:16.366Z,6.50
2023-02-23T21:31:50.047Z,4.90
2023-02-23T21:34:21.625Z,6.60
2023-02-23T21:36:52.339Z,6.40
2023-02-23T21:39:22.174Z,6.60
2023-02-23T21:41:51.416Z,6.67
2023-02-23T21:44:19.532Z,5.03
2023-02-23T21:46:47.963Z,6.30
2023-02-23T21:49:19.434Z,6.30
2023-02-23T21:51:47.754Z,6.20
2023-02-23T21:54:16.136Z,6.07
2023-02-23T21:56:44.263Z,7.37
2023-02-23T21:59:13.093Z,7.80
2023-02-23T22:01:42.930Z,6.77
2023-02-23T22:04:14.615Z,6.77
2023-02-23T22:06:45.489Z,5.43
2023-02-23T22:09:16.002Z,6.13
2023-02-23T22:11:46.927Z,7.43
2023-02-23T22:14:16.669Z,6.57
2023-02-23T22:16:45.744Z,6.90
2023-02-23T22:19:14.140Z,5.40
2023-02-23T22:21:44.631Z,5.17
2023-02-23T22:24:13.825Z,5.27
2023-02-23T22:26:53.939Z,6.83
2023-02-23T22:29:23.183Z,5.20
2023-02-23T22:31:51.757Z,6.13
2023-02-23T22:34:19.960Z,5.13
2023-02-23T22:36:50.183Z,4.90
2023-02-23T22:39:18.729Z,5.20
2023-02-23T22:41:47.464Z,6.13
2023-02-23T22:44:17.827Z,4.70
2023-02-23T22:46:48.222Z,5.27
2023-02-23T22:49:16.769Z,6.20
2023-02-23T22:51:45.451Z,5.53
2023-02-23T22:54:15.432Z,5.00
2023-02-23T22:56:44.092Z,4.63
2023-02-23T22:59:17.501Z,5.17
2023-02-23T23:01:47.590Z,5.00
2023-02-23T23:04:16.110Z,4.70
2023-02-23T23:06:44.516Z,4.20
2023-02-23T23:09:16.414Z,4.30
2023-02-23T23:11:44.883Z,3.57
2023-02-23T23:14:13.919Z,3.80
2023-02-23T23:16:47.866Z,4.07
2023-02-23T23:19:18.980Z,3.80
2023-02-23T23:21:47.494Z,3.20
2023-02-23T23:24:16.883Z,3.87
2023-02-23T23:26:45.211Z,3.47
2023-02-23T23:29:15.759Z,5.03
2023-02-23T23:31:46.463Z,4.47
2023-02-23T23:34:16.649Z,5.00
2023-02-23T23:36:49.099Z,4.47
2023-02-23T23:39:20.355Z,3.80
2023-02-23T23:41:49.896Z,3.63
2023-02-23T23:44:19.904Z,4.30
2023-02-23T23:46:50.657Z,4.30
2023-02-23T23:49:21.064Z,3.40
2023-02-23T23:51:50.877Z,3.73
2023-02-23T23:54:23.171Z,3.50
2023-02-23T23:56:51.854Z,3.33
2023-02-23T23:59:21.759Z,5.00
